createdAt,value
2022-10-24T00:01:16.264Z,13.23
2022-10-24T00:03:43.131Z,12.55
2022-10-24T00:06:11.463Z,12.00
2022-10-24T00:08:39.006Z,13.57
2022-10-24T00:11:27.150Z,12.85
2022-10-24T00:13:55.470Z,12.55
2022-10-24T00:16:22.577Z,12.80
2022-10-24T00:18:49.642Z,11.68
2022-10-24T00:21:16.765Z,13.50
2022-10-24T00:23:43.754Z,12.45
2022-10-24T00:26:11.817Z,12.27
2022-10-24T00:28:39.782Z,11.02
2022-10-24T00:31:11.547Z,11.70
2022-10-24T00:33:38.485Z,12.10
2022-10-24T00:36:05.698Z,12.20
2022-10-24T00:38:32.435Z,12.07
2022-10-24T00:40:59.380Z,10.98
2022-10-24T00:43:27.072Z,12.07
2022-10-24T00:46:02.143Z,11.52
2022-10-24T00:48:33.703Z,10.98
2022-10-24T00:51:28.442Z,10.70
2022-10-24T00:54:01.495Z,10.43
2022-10-24T00:56:32.487Z,10.38
2022-10-24T00:59:01.230Z,10.43
2022-10-24T01:01:28.319Z,10.25
2022-10-24T01:03:55.169Z,10.73
2022-10-24T01:06:44.933Z,10.85
2022-10-24T01:09:36.930Z,10.50
2022-10-24T01:12:22.501Z,10.40
2022-10-24T01:15:11.974Z,10.20
2022-10-24T01:17:59.987Z,9.52
2022-10-24T01:20:32.720Z,10.07
2022-10-24T01:23:05.814Z,9.57
2022-10-24T01:25:49.746Z,9.95
2022-10-24T01:28:31.152Z,9.65
2022-10-24T01:31:12.349Z,10.20
2022-10-24T01:33:46.819Z,9.77
2022-10-24T01:36:25.527Z,8.77
2022-10-24T01:38:59.834Z,9.88
2022-10-24T01:41:29.052Z,9.95
2022-10-24T01:46:31.994Z,10.48
2022-10-24T01:49:08.072Z,9.27
2022-10-24T01:51:36.953Z,10.10
2022-10-24T01:54:04.386Z,11.15
2022-10-24T01:56:31.270Z,9.13
2022-10-24T01:59:30.513Z,10.88
2022-10-24T02:02:23.986Z,10.23
2022-10-24T02:05:06.638Z,9.30
2022-10-24T02:07:35.179Z,10.38
2022-10-24T02:10:12.762Z,10.90
2022-10-24T02:12:48.425Z,10.80
2022-10-24T02:15:26.396Z,9.55
2022-10-24T02:17:54.724Z,10.52
2022-10-24T02:20:46.222Z,9.45
2022-10-24T02:23:25.316Z,9.20
2022-10-24T02:28:28.619Z,8.63
2022-10-24T02:31:01.059Z,9.10
2022-10-24T02:33:30.130Z,9.10
2022-10-24T02:38:27.984Z,9.55
2022-10-24T02:40:56.942Z,9.52
2022-10-24T02:43:25.728Z,9.48
2022-10-24T02:45:54.537Z,9.55
2022-10-24T02:48:27.084Z,8.93
2022-10-24T02:50:54.053Z,8.50
2022-10-24T02:53:24.173Z,9.40
2022-10-24T02:58:40.353Z,9.60
2022-10-24T03:01:07.431Z,8.65
2022-10-24T03:03:34.287Z,8.30
2022-10-24T03:06:01.814Z,8.65
2022-10-24T03:08:28.554Z,9.13
2022-10-24T03:10:55.615Z,7.80
2022-10-24T03:13:22.492Z,9.20
2022-10-24T03:15:49.608Z,8.20
2022-10-24T03:18:16.444Z,7.55
2022-10-24T03:20:43.510Z,8.82
2022-10-24T03:23:10.626Z,9.05
2022-10-24T03:25:37.717Z,8.60
2022-10-24T03:28:05.319Z,8.32
2022-10-24T03:30:32.315Z,8.40
2022-10-24T03:32:59.099Z,8.57
2022-10-24T03:35:26.215Z,7.78
2022-10-24T03:37:52.979Z,7.80
2022-10-24T03:40:19.990Z,8.68
2022-10-24T03:42:47.129Z,7.22
2022-10-24T03:45:14.457Z,8.13
2022-10-24T03:47:41.381Z,7.40
2022-10-24T03:50:08.881Z,7.78
2022-10-24T03:52:35.801Z,6.40
2022-10-24T03:55:03.223Z,7.43
2022-10-24T03:57:30.020Z,6.40
2022-10-24T03:59:57.065Z,7.80
2022-10-24T04:02:23.852Z,7.47
2022-10-24T04:04:50.834Z,6.68
2022-10-24T04:07:17.755Z,6.93
2022-10-24T04:09:44.832Z,6.80
2022-10-24T04:12:11.598Z,6.13
2022-10-24T04:14:38.569Z,6.60
2022-10-24T04:17:05.419Z,5.88
2022-10-24T04:19:32.695Z,5.72
2022-10-24T04:21:59.575Z,5.30
2022-10-24T04:24:26.840Z,5.68
2022-10-24T04:26:53.613Z,5.90
2022-10-24T04:29:20.684Z,6.13
2022-10-24T04:31:47.481Z,5.97
2022-10-24T04:34:14.543Z,5.60
2022-10-24T04:36:41.331Z,5.78
2022-10-24T04:39:09.296Z,5.88
2022-10-24T04:41:36.181Z,7.03
2022-10-24T04:44:03.721Z,6.60
2022-10-24T04:46:31.005Z,6.38
2022-10-24T04:48:58.001Z,6.15
2022-10-24T04:51:24.941Z,5.97
2022-10-24T04:53:52.139Z,6.38
2022-10-24T04:56:19.841Z,6.13
2022-10-24T04:58:47.507Z,6.43
2022-10-24T05:01:14.673Z,6.15
2022-10-24T05:03:41.710Z,5.75
2022-10-24T05:06:08.605Z,7.03
2022-10-24T05:08:36.291Z,6.78
2022-10-24T05:11:03.630Z,6.80
2022-10-24T05:13:33.023Z,6.25
2022-10-24T05:16:02.698Z,6.57
2022-10-24T05:18:29.664Z,7.07
2022-10-24T05:20:57.931Z,6.88
2022-10-24T05:23:25.342Z,6.43
2022-10-24T05:25:52.179Z,6.63
2022-10-24T05:28:19.136Z,6.47
2022-10-24T05:30:46.380Z,8.15
2022-10-24T05:33:13.503Z,7.53
2022-10-24T05:35:41.757Z,6.25
2022-10-24T05:38:09.251Z,7.03
2022-10-24T05:40:36.005Z,6.95
2022-10-24T05:43:03.255Z,6.88
2022-10-24T05:45:30.051Z,7.20
2022-10-24T05:47:57.039Z,7.15
2022-10-24T05:50:23.859Z,6.80
2022-10-24T05:52:50.844Z,7.72
2022-10-24T05:55:18.423Z,7.10
2022-10-24T05:57:46.051Z,6.30
2022-10-24T06:00:15.141Z,6.68
2022-10-24T06:02:42.723Z,6.00
2022-10-24T06:05:10.727Z,7.07
2022-10-24T06:07:38.376Z,6.30
2022-10-24T06:10:06.481Z,6.80
2022-10-24T06:12:33.803Z,6.22
2022-10-24T06:15:00.918Z,5.75
2022-10-24T06:17:27.985Z,5.80
2022-10-24T06:19:54.746Z,5.72
2022-10-24T06:22:24.760Z,6.55
2022-10-24T06:24:51.534Z,5.32
2022-10-24T06:27:18.498Z,5.78
2022-10-24T06:29:45.696Z,5.72
2022-10-24T06:32:13.019Z,5.60
2022-10-24T06:34:39.919Z,5.70
2022-10-24T06:37:06.939Z,4.50
2022-10-24T06:39:33.740Z,5.05
2022-10-24T06:42:01.974Z,5.55
2022-10-24T06:44:28.815Z,5.65
2022-10-24T06:46:55.871Z,5.82
2022-10-24T06:49:22.772Z,5.32
2022-10-24T06:51:49.945Z,5.35
2022-10-24T06:54:16.950Z,4.75
2022-10-24T06:56:43.999Z,5.63
2022-10-24T06:59:14.166Z,6.18
2022-10-24T07:01:41.394Z,6.03
2022-10-24T07:04:08.837Z,5.38
2022-10-24T07:06:36.263Z,5.50
2022-10-24T07:09:05.393Z,5.90
2022-10-24T07:11:34.526Z,6.30
2022-10-24T07:14:02.656Z,5.40
2022-10-24T07:16:31.874Z,6.07
2022-10-24T07:18:58.663Z,6.28
2022-10-24T07:21:28.751Z,6.22
2022-10-24T07:23:56.516Z,5.50
2022-10-24T07:26:25.764Z,6.72
2022-10-24T07:28:56.287Z,6.35
2022-10-24T07:31:26.677Z,5.43
2022-10-24T07:33:53.997Z,5.47
2022-10-24T07:36:23.611Z,8.10
2022-10-24T07:38:53.097Z,6.93
2022-10-24T07:41:24.597Z,5.57
2022-10-24T07:43:52.828Z,4.78
2022-10-24T07:46:20.177Z,5.35
2022-10-24T07:48:49.906Z,4.97
2022-10-24T07:51:17.992Z,4.60
2022-10-24T07:53:45.467Z,5.30
2022-10-24T07:56:15.737Z,4.13
2022-10-24T07:58:44.213Z,4.50
2022-10-24T08:01:14.455Z,4.68
2022-10-24T08:03:41.746Z,4.20
2022-10-24T08:06:16.111Z,4.63
2022-10-24T08:08:43.371Z,4.22
2022-10-24T08:11:13.104Z,4.07
2022-10-24T08:13:40.356Z,4.35
2022-10-24T08:16:09.209Z,4.20
2022-10-24T08:18:39.548Z,4.07
2022-10-24T08:21:12.738Z,5.13
2022-10-24T08:23:41.988Z,4.05
2022-10-24T08:26:11.750Z,4.97
2022-10-24T08:28:38.679Z,4.68
2022-10-24T08:31:09.013Z,4.13
2022-10-24T08:33:35.915Z,3.88
2022-10-24T08:36:13.828Z,4.80
2022-10-24T08:38:40.606Z,4.18
2022-10-24T08:41:15.999Z,4.60
2022-10-24T08:43:43.130Z,4.43
2022-10-24T08:46:28.240Z,4.55
2022-10-24T08:49:02.925Z,4.68
2022-10-24T08:51:40.528Z,4.68
2022-10-24T08:54:13.995Z,4.65
2022-10-24T08:56:41.428Z,4.40
2022-10-24T08:59:12.661Z,4.50
2022-10-24T09:01:43.360Z,4.32
2022-10-24T09:04:14.071Z,4.82
2022-10-24T09:06:41.871Z,4.82
2022-10-24T09:09:30.013Z,4.43
2022-10-24T09:12:15.265Z,4.97
2022-10-24T09:14:44.590Z,4.88
2022-10-24T09:17:29.642Z,4.45
2022-10-24T09:20:21.207Z,4.13
2022-10-24T09:22:49.019Z,4.00
2022-10-24T09:25:21.485Z,4.72
2022-10-24T09:27:49.423Z,4.90
2022-10-24T09:30:19.467Z,5.13
2022-10-24T09:32:47.377Z,4.80
2022-10-24T09:35:22.492Z,4.80
2022-10-24T09:38:19.194Z,5.03
2022-10-24T09:40:54.907Z,5.07
2022-10-24T09:43:39.455Z,5.03
2022-10-24T09:46:10.358Z,4.72
2022-10-24T09:48:40.068Z,6.13
2022-10-24T09:51:08.297Z,4.70
2022-10-24T09:53:38.535Z,5.20
2022-10-24T09:56:14.901Z,5.03
2022-10-24T09:58:42.646Z,5.05
2022-10-24T10:01:15.342Z,4.22
2022-10-24T10:03:43.084Z,4.35
2022-10-24T10:06:18.696Z,4.47
2022-10-24T10:08:55.141Z,4.65
2022-10-24T10:11:32.899Z,4.75
2022-10-24T10:14:02.672Z,4.22
2022-10-24T10:16:39.728Z,4.50
2022-10-24T10:19:19.036Z,4.30
2022-10-24T10:24:43.437Z,5.70
2022-10-24T10:38:53.630Z,6.55
2022-10-24T10:41:33.663Z,6.35
2022-10-24T10:44:06.409Z,4.13
2022-10-24T10:46:39.150Z,4.70
2022-10-24T10:49:14.248Z,4.95
2022-10-24T10:51:50.285Z,5.40
2022-10-24T10:54:35.366Z,5.38
2022-10-24T10:57:08.400Z,5.70
2022-10-24T10:59:41.269Z,4.03
2022-10-24T11:02:34.371Z,4.82
2022-10-24T11:05:40.315Z,4.47
2022-10-24T11:08:29.655Z,5.10
2022-10-24T11:11:04.227Z,4.85
2022-10-24T11:13:37.012Z,4.90
2022-10-24T11:16:10.896Z,5.30
2022-10-24T11:18:42.509Z,4.82
2022-10-24T11:21:11.457Z,4.43
2022-10-24T11:26:45.373Z,4.35
2022-10-24T11:29:27.003Z,4.80
2022-10-24T11:32:00.865Z,4.65
2022-10-24T11:34:46.993Z,4.72
2022-10-24T11:37:24.448Z,4.13
2022-10-24T11:40:14.603Z,4.30
2022-10-24T11:42:41.440Z,4.30
2022-10-24T11:45:15.161Z,4.63
2022-10-24T11:47:52.414Z,4.60
2022-10-24T11:50:21.850Z,4.20
2022-10-24T11:53:05.754Z,3.90
2022-10-24T11:55:39.103Z,4.95
2022-10-24T11:58:14.761Z,4.90
2022-10-24T12:01:12.878Z,4.35
2022-10-24T12:04:17.430Z,4.70
2022-10-24T12:07:04.599Z,5.57
2022-10-24T12:09:52.196Z,4.38
2022-10-24T12:12:58.015Z,4.07
2022-10-24T12:16:03.299Z,4.47
2022-10-24T12:18:41.841Z,4.93
2022-10-24T12:21:12.738Z,4.40
2022-10-24T12:23:52.269Z,4.38
2022-10-24T12:28:58.406Z,5.10
2022-10-24T12:31:35.882Z,4.57
2022-10-24T12:34:23.082Z,4.70
2022-10-24T12:37:18.770Z,4.35
2022-10-24T12:39:52.583Z,4.10
2022-10-24T12:42:24.486Z,4.47
2022-10-24T12:45:28.533Z,5.10
2022-10-24T12:50:23.065Z,5.70
2022-10-24T12:52:56.016Z,4.88
2022-10-24T12:55:39.663Z,4.75
2022-10-24T12:58:25.156Z,5.40
2022-10-24T13:01:01.717Z,4.70
2022-10-24T13:03:54.357Z,5.25
2022-10-24T13:06:24.324Z,5.20
2022-10-24T13:08:57.927Z,6.70
2022-10-24T13:11:52.194Z,6.85
2022-10-24T13:14:42.097Z,6.97
2022-10-24T13:17:22.393Z,5.27
2022-10-24T13:20:04.496Z,4.93
2022-10-24T13:22:35.977Z,5.80
2022-10-24T13:25:20.082Z,5.50
2022-10-24T13:28:30.342Z,5.95
2022-10-24T13:31:00.276Z,5.10
2022-10-24T13:33:33.229Z,7.72
2022-10-24T13:36:09.253Z,6.95
2022-10-24T13:39:03.423Z,7.50
2022-10-24T13:41:35.964Z,8.68
2022-10-24T13:44:11.701Z,9.85
2022-10-24T13:46:48.989Z,8.63
2022-10-24T13:49:39.901Z,9.73
2022-10-24T13:52:44.501Z,10.23
2022-10-24T13:55:46.570Z,9.40
2022-10-24T13:58:24.490Z,10.07
2022-10-24T14:00:58.911Z,8.70
2022-10-24T14:03:27.981Z,7.75
2022-10-24T14:06:08.398Z,8.95
2022-10-24T14:08:48.161Z,7.82
2022-10-24T14:11:26.362Z,8.43
2022-10-24T14:14:02.620Z,9.63
2022-10-24T14:16:34.934Z,9.13
2022-10-24T14:19:29.805Z,7.55
2022-10-24T14:21:59.095Z,7.20
2022-10-24T14:24:25.848Z,8.05
2022-10-24T14:26:54.229Z,8.20
2022-10-24T14:29:25.209Z,8.85
2022-10-24T14:31:59.425Z,7.38
2022-10-24T14:34:26.726Z,7.18
2022-10-24T14:36:56.004Z,7.10
2022-10-24T14:39:26.298Z,7.47
2022-10-24T14:41:54.282Z,8.10
2022-10-24T14:44:22.446Z,8.18
2022-10-24T14:47:03.048Z,7.97
2022-10-24T14:49:36.818Z,9.73
2022-10-24T14:52:12.029Z,11.27
2022-10-24T14:54:41.512Z,9.45
2022-10-24T14:57:18.453Z,9.32
2022-10-24T14:59:47.958Z,8.65
2022-10-24T15:02:21.062Z,10.13
2022-10-24T15:04:48.761Z,9.80
2022-10-24T15:07:36.142Z,12.23
2022-10-24T15:10:52.388Z,12.68
2022-10-24T15:13:21.792Z,10.10
2022-10-24T15:15:55.133Z,9.55
2022-10-24T15:18:25.234Z,10.25
2022-10-24T15:20:54.993Z,10.82
2022-10-24T15:23:27.434Z,9.35
2022-10-24T15:26:16.907Z,9.30
2022-10-24T15:28:45.943Z,8.98
2022-10-24T15:31:14.887Z,10.93
2022-10-24T15:33:42.264Z,10.48
2022-10-24T15:36:20.176Z,11.82
2022-10-24T15:38:48.635Z,12.25
2022-10-24T15:41:16.136Z,13.05
2022-10-24T15:43:43.195Z,13.10
2022-10-24T15:46:09.977Z,10.77
2022-10-24T15:48:38.979Z,10.90
2022-10-24T15:51:06.001Z,12.23
2022-10-24T15:53:33.322Z,12.30
2022-10-24T15:56:00.063Z,12.88
2022-10-24T15:58:28.787Z,14.57
2022-10-24T16:00:55.927Z,11.38
2022-10-24T16:03:23.559Z,9.18
2022-10-24T16:05:56.073Z,9.10
2022-10-24T16:08:24.206Z,17.48
2022-10-24T16:10:53.225Z,18.75
2022-10-24T16:13:22.108Z,15.82
2022-10-24T16:15:49.804Z,25.02
2022-10-24T16:18:16.915Z,19.20
2022-10-24T16:20:43.743Z,11.55
2022-10-24T16:23:14.573Z,12.65
2022-10-24T16:25:41.517Z,12.07
2022-10-24T16:28:08.546Z,12.40
2022-10-24T16:30:38.035Z,11.43
2022-10-24T16:33:05.650Z,16.80
2022-10-24T16:35:35.608Z,9.60
2022-10-24T16:38:04.798Z,11.25
2022-10-24T16:40:36.657Z,38.83
2022-10-24T16:43:03.868Z,53.50
2022-10-24T16:45:30.809Z,73.80
2022-10-24T16:47:57.798Z,28.50
2022-10-24T16:50:28.632Z,25.40
2022-10-24T16:53:00.455Z,13.35
2022-10-24T16:55:28.183Z,19.00
2022-10-24T16:57:55.349Z,42.35
2022-10-24T17:00:23.315Z,13.00
2022-10-24T17:02:52.287Z,11.70
2022-10-24T17:05:21.555Z,13.48
2022-10-24T17:07:48.993Z,32.72
2022-10-24T17:10:19.488Z,13.88
2022-10-24T17:12:49.416Z,24.55
2022-10-24T17:15:20.846Z,15.20
2022-10-24T17:17:49.347Z,26.98
2022-10-24T17:20:17.527Z,21.52
2022-10-24T17:22:46.597Z,13.07
2022-10-24T17:25:25.321Z,10.77
2022-10-24T17:27:53.966Z,10.68
2022-10-24T17:30:23.877Z,15.05
2022-10-24T17:32:51.036Z,12.57
2022-10-24T17:35:20.869Z,8.98
2022-10-24T17:38:02.160Z,13.90
2022-10-24T17:40:42.634Z,12.80
2022-10-24T17:43:23.337Z,13.27
2022-10-24T17:45:50.406Z,14.70
2022-10-24T17:48:17.748Z,15.05
2022-10-24T17:50:45.377Z,11.85
2022-10-24T17:53:13.639Z,8.85
2022-10-24T17:55:46.124Z,8.77
2022-10-24T17:58:15.552Z,11.75
2022-10-24T18:00:43.195Z,9.57
2022-10-24T18:03:10.319Z,13.40
2022-10-24T18:05:38.214Z,13.13
2022-10-24T18:08:07.572Z,12.00
2022-10-24T18:10:36.961Z,12.70
2022-10-24T18:13:04.817Z,11.30
2022-10-24T18:15:31.608Z,11.57
2022-10-24T18:17:58.600Z,10.80
2022-10-24T18:20:25.371Z,9.77
2022-10-24T18:22:52.485Z,9.95
2022-10-24T18:25:22.717Z,8.93
2022-10-24T18:27:51.103Z,8.52
2022-10-24T18:30:19.603Z,8.90
2022-10-24T18:32:47.391Z,10.32
2022-10-24T18:35:15.408Z,9.50
2022-10-24T18:37:42.617Z,10.00
2022-10-24T18:40:10.119Z,10.20
2022-10-24T18:42:53.466Z,9.38
2022-10-24T18:45:23.442Z,9.23
2022-10-24T18:47:51.871Z,9.98
2022-10-24T18:50:24.109Z,10.13
2022-10-24T18:53:00.088Z,10.70
2022-10-24T18:55:29.330Z,11.52
2022-10-24T18:57:57.061Z,9.45
2022-10-24T19:00:28.702Z,8.70
2022-10-24T19:03:18.365Z,9.70
2022-10-24T19:05:54.541Z,8.13
2022-10-24T19:08:24.253Z,7.85
2022-10-24T19:10:53.436Z,8.52
2022-10-24T19:13:20.690Z,8.38
2022-10-24T19:15:53.654Z,8.20
2022-10-24T19:18:21.012Z,8.20
2022-10-24T19:20:47.838Z,8.10
2022-10-24T19:23:16.192Z,7.57
2022-10-24T19:25:43.225Z,7.60
2022-10-24T19:28:17.290Z,8.02
2022-10-24T19:30:45.119Z,7.82
2022-10-24T19:33:13.894Z,7.93
2022-10-24T19:35:46.870Z,8.20
2022-10-24T19:38:15.552Z,7.55
2022-10-24T19:40:51.973Z,8.05
2022-10-24T19:43:20.638Z,7.75
2022-10-24T19:46:07.266Z,8.38
2022-10-24T19:48:37.774Z,7.50
2022-10-24T19:51:06.970Z,7.30
2022-10-24T19:56:06.324Z,8.45
2022-10-24T19:58:33.994Z,7.45
2022-10-24T20:01:22.237Z,7.85
2022-10-24T20:03:50.093Z,9.30
2022-10-24T20:06:17.741Z,8.35
2022-10-24T20:08:49.610Z,8.98
2022-10-24T20:11:17.191Z,9.32
2022-10-24T20:13:44.323Z,8.95
2022-10-24T20:16:11.557Z,9.07
2022-10-24T20:21:14.741Z,8.80
2022-10-24T20:23:41.891Z,9.40
2022-10-24T20:26:12.243Z,9.05
2022-10-24T20:28:43.256Z,9.10
2022-10-24T20:31:25.554Z,10.30
2022-10-24T20:33:53.097Z,9.40
2022-10-24T20:36:21.380Z,9.98
2022-10-24T20:38:48.470Z,9.60
2022-10-24T20:41:15.414Z,9.10
2022-10-24T20:43:42.507Z,9.85
2022-10-24T20:46:09.324Z,10.25
2022-10-24T20:48:36.661Z,10.02
2022-10-24T20:51:12.309Z,10.25
2022-10-24T20:53:39.837Z,9.43
2022-10-24T20:56:08.445Z,8.80
2022-10-24T20:58:40.363Z,9.35
2022-10-24T21:01:09.653Z,10.10
2022-10-24T21:03:37.651Z,10.07
2022-10-24T21:06:05.348Z,9.65
2022-10-24T21:08:32.361Z,10.30
2022-10-24T21:10:59.135Z,10.05
2022-10-24T21:13:26.100Z,10.30
2022-10-24T21:15:56.833Z,9.13
2022-10-24T21:18:23.888Z,10.63
2022-10-24T21:20:50.980Z,11.50
2022-10-24T21:23:18.025Z,10.13
2022-10-24T21:25:44.911Z,10.38
2022-10-24T21:28:11.917Z,10.63
2022-10-24T21:30:38.748Z,10.90
2022-10-24T21:33:09.058Z,10.45
2022-10-24T21:35:38.407Z,10.13
2022-10-24T21:38:05.384Z,10.88
2022-10-24T21:40:32.144Z,11.20
2022-10-24T21:43:00.761Z,9.13
2022-10-24T21:45:27.688Z,9.95
2022-10-24T21:47:54.670Z,9.43
2022-10-24T21:50:21.409Z,10.95
2022-10-24T21:52:48.584Z,9.27
2022-10-24T21:55:15.664Z,9.55
2022-10-24T21:57:42.672Z,10.98
2022-10-24T22:00:10.276Z,10.80
2022-10-24T22:02:37.388Z,10.18
2022-10-24T22:05:04.558Z,11.23
2022-10-24T22:07:31.560Z,9.98
2022-10-24T22:09:58.331Z,9.38
2022-10-24T22:12:25.756Z,11.93
2022-10-24T22:14:52.533Z,10.43
2022-10-24T22:17:19.497Z,11.73
2022-10-24T22:19:46.238Z,11.38
2022-10-24T22:22:13.278Z,10.52
2022-10-24T22:24:40.293Z,12.15
2022-10-24T22:27:07.291Z,11.40
2022-10-24T22:29:34.027Z,11.02
2022-10-24T22:32:01.301Z,10.82
2022-10-24T22:34:28.528Z,10.55
2022-10-24T22:37:05.554Z,10.63
2022-10-24T22:39:32.642Z,9.60
2022-10-24T22:41:59.891Z,10.20
2022-10-24T22:44:26.990Z,10.25
2022-10-24T22:47:14.802Z,10.50
2022-10-24T22:50:02.847Z,11.20
2022-10-24T22:52:30.300Z,11.20
2022-10-24T22:54:57.330Z,9.77
2022-10-24T22:57:24.813Z,10.18
2022-10-24T22:59:51.964Z,9.95
2022-10-24T23:02:37.999Z,10.52
2022-10-24T23:05:09.418Z,10.27
2022-10-24T23:07:46.132Z,9.85
2022-10-24T23:10:18.673Z,10.45
2022-10-24T23:12:46.335Z,9.85
2022-10-24T23:15:19.010Z,10.57
2022-10-24T23:17:47.052Z,10.10
2022-10-24T23:20:27.618Z,9.85
2022-10-24T23:23:09.057Z,10.18
2022-10-24T23:25:48.744Z,10.13
2022-10-24T23:28:15.767Z,9.20
2022-10-24T23:30:42.795Z,9.90
2022-10-24T23:33:22.632Z,9.27
2022-10-24T23:35:54.683Z,10.35
2022-10-24T23:38:21.958Z,10.43
2022-10-24T23:40:49.041Z,9.23
2022-10-24T23:43:20.073Z,8.88
2022-10-24T23:46:05.098Z,10.05
2022-10-24T23:48:42.924Z,10.32
2022-10-24T23:51:14.076Z,9.27
2022-10-24T23:53:52.348Z,9.43
2022-10-24T23:56:25.122Z,10.15
2022-10-24T23:58:52.758Z,10.38
